sensor_id;sensor_type;location;lat;lon;timestamp;temperature;humidity
80540;DHT22;69869;48.036;15.780;2023-05-23T00:01:03;19.30;72.20
80540;DHT22;69869;48.036;15.780;2023-05-23T00:03:31;19.30;71.80
80540;DHT22;69869;48.036;15.780;2023-05-23T00:05:57;19.30;72.00
80540;DHT22;69869;48.036;15.780;2023-05-23T00:08:24;19.30;71.30
80540;DHT22;69869;48.036;15.780;2023-05-23T00:10:49;19.30;71.70
80540;DHT22;69869;48.036;15.780;2023-05-23T00:13:15;19.30;70.60
80540;DHT22;69869;48.036;15.780;2023-05-23T00:15:42;19.30;71.70
80540;DHT22;69869;48.036;15.780;2023-05-23T00:18:09;19.30;71.50
80540;DHT22;69869;48.036;15.780;2023-05-23T00:20:40;19.30;71.40
80540;DHT22;69869;48.036;15.780;2023-05-23T00:23:08;19.20;71.00
80540;DHT22;69869;48.036;15.780;2023-05-23T00:25:35;19.30;71.50
80540;DHT22;69869;48.036;15.780;2023-05-23T00:28:04;19.30;71.40
80540;DHT22;69869;48.036;15.780;2023-05-23T00:30:30;19.20;71.60
80540;DHT22;69869;48.036;15.780;2023-05-23T00:32:57;19.20;71.00
80540;DHT22;69869;48.036;15.780;2023-05-23T00:35:23;19.30;71.40
80540;DHT22;69869;48.036;15.780;2023-05-23T00:37:49;19.30;71.20
80540;DHT22;69869;48.036;15.780;2023-05-23T00:40:17;19.30;71.00
80540;DHT22;69869;48.036;15.780;2023-05-23T00:42:43;19.30;70.30
80540;DHT22;69869;48.036;15.780;2023-05-23T00:45:09;19.20;70.50
80540;DHT22;69869;48.036;15.780;2023-05-23T00:47:39;19.30;70.90
80540;DHT22;69869;48.036;15.780;2023-05-23T00:50:10;19.30;70.50
80540;DHT22;69869;48.036;15.780;2023-05-23T00:52:37;19.30;70.80
80540;DHT22;69869;48.036;15.780;2023-05-23T00:55:03;19.30;70.40
80540;DHT22;69869;48.036;15.780;2023-05-23T00:57:29;19.30;71.20
80540;DHT22;69869;48.036;15.780;2023-05-23T00:59:55;19.30;70.60
80540;DHT22;69869;48.036;15.780;2023-05-23T01:02:21;19.30;70.10
80540;DHT22;69869;48.036;15.780;2023-05-23T01:04:48;19.30;70.80
80540;DHT22;69869;48.036;15.780;2023-05-23T01:07:21;19.30;71.10
80540;DHT22;69869;48.036;15.780;2023-05-23T01:09:47;19.20;70.90
80540;DHT22;69869;48.036;15.780;2023-05-23T01:15:04;19.30;70.80
80540;DHT22;69869;48.036;15.780;2023-05-23T01:20:11;19.30;71.50
80540;DHT22;69869;48.036;15.780;2023-05-23T01:22:45;19.30;71.00
80540;DHT22;69869;48.036;15.780;2023-05-23T01:25:38;19.20;71.60
80540;DHT22;69869;48.036;15.780;2023-05-23T01:28:18;19.30;71.10
80540;DHT22;69869;48.036;15.780;2023-05-23T01:30:45;19.20;70.80
80540;DHT22;69869;48.036;15.780;2023-05-23T01:33:14;19.30;71.00
80540;DHT22;69869;48.036;15.780;2023-05-23T01:35:42;19.20;70.60
80540;DHT22;69869;48.036;15.780;2023-05-23T01:38:08;19.30;71.00
80540;DHT22;69869;48.036;15.780;2023-05-23T01:40:34;19.30;71.20
80540;DHT22;69869;48.036;15.780;2023-05-23T01:43:00;19.30;71.20
80540;DHT22;69869;48.036;15.780;2023-05-23T01:45:28;19.20;70.50
80540;DHT22;69869;48.036;15.780;2023-05-23T01:47:55;19.30;70.60
80540;DHT22;69869;48.036;15.780;2023-05-23T01:50:22;19.30;70.80
80540;DHT22;69869;48.036;15.780;2023-05-23T01:52:48;19.30;71.00
80540;DHT22;69869;48.036;15.780;2023-05-23T01:55:16;19.20;70.60
80540;DHT22;69869;48.036;15.780;2023-05-23T01:57:53;19.30;70.80
80540;DHT22;69869;48.036;15.780;2023-05-23T02:00:20;19.20;69.70
80540;DHT22;69869;48.036;15.780;2023-05-23T02:02:46;19.20;71.20
80540;DHT22;69869;48.036;15.780;2023-05-23T02:05:11;19.20;72.00
80540;DHT22;69869;48.036;15.780;2023-05-23T02:07:37;19.20;70.90
80540;DHT22;69869;48.036;15.780;2023-05-23T02:10:03;19.30;70.60
80540;DHT22;69869;48.036;15.780;2023-05-23T02:12:29;19.30;72.20
80540;DHT22;69869;48.036;15.780;2023-05-23T02:14:55;19.30;72.40
80540;DHT22;69869;48.036;15.780;2023-05-23T02:17:21;19.30;72.50
80540;DHT22;69869;48.036;15.780;2023-05-23T02:19:47;19.30;72.40
80540;DHT22;69869;48.036;15.780;2023-05-23T02:22:13;19.30;72.10
80540;DHT22;69869;48.036;15.780;2023-05-23T02:24:39;19.30;72.30
80540;DHT22;69869;48.036;15.780;2023-05-23T02:27:05;19.20;72.30
80540;DHT22;69869;48.036;15.780;2023-05-23T02:29:31;19.30;72.20
80540;DHT22;69869;48.036;15.780;2023-05-23T02:31:56;19.30;72.40
80540;DHT22;69869;48.036;15.780;2023-05-23T02:34:22;19.30;72.40
80540;DHT22;69869;48.036;15.780;2023-05-23T02:36:48;19.30;72.20
80540;DHT22;69869;48.036;15.780;2023-05-23T02:39:13;19.30;72.40
80540;DHT22;69869;48.036;15.780;2023-05-23T02:41:39;19.30;72.20
80540;DHT22;69869;48.036;15.780;2023-05-23T02:44:05;19.30;72.40
80540;DHT22;69869;48.036;15.780;2023-05-23T02:46:31;19.30;72.50
80540;DHT22;69869;48.036;15.780;2023-05-23T02:48:56;19.30;72.70
80540;DHT22;69869;48.036;15.780;2023-05-23T02:51:22;19.20;72.30
80540;DHT22;69869;48.036;15.780;2023-05-23T02:53:48;19.30;73.10
80540;DHT22;69869;48.036;15.780;2023-05-23T02:56:13;19.30;72.80
80540;DHT22;69869;48.036;15.780;2023-05-23T02:58:40;19.30;73.20
80540;DHT22;69869;48.036;15.780;2023-05-23T03:01:06;19.30;72.60
80540;DHT22;69869;48.036;15.780;2023-05-23T03:03:32;19.30;72.30
80540;DHT22;69869;48.036;15.780;2023-05-23T03:05:59;19.30;72.50
80540;DHT22;69869;48.036;15.780;2023-05-23T03:08:25;19.30;72.70
80540;DHT22;69869;48.036;15.780;2023-05-23T03:10:50;19.30;72.40
80540;DHT22;69869;48.036;15.780;2023-05-23T03:13:17;19.30;72.30
80540;DHT22;69869;48.036;15.780;2023-05-23T03:15:43;19.30;72.60
80540;DHT22;69869;48.036;15.780;2023-05-23T03:18:09;19.30;72.70
80540;DHT22;69869;48.036;15.780;2023-05-23T03:20:35;19.30;72.60
80540;DHT22;69869;48.036;15.780;2023-05-23T03:23:01;19.30;71.80
80540;DHT22;69869;48.036;15.780;2023-05-23T03:25:26;19.30;71.30
80540;DHT22;69869;48.036;15.780;2023-05-23T03:27:52;19.30;72.00
80540;DHT22;69869;48.036;15.780;2023-05-23T03:30:18;19.30;71.60
80540;DHT22;69869;48.036;15.780;2023-05-23T03:32:43;19.30;71.40
80540;DHT22;69869;48.036;15.780;2023-05-23T03:35:09;19.30;70.90
80540;DHT22;69869;48.036;15.780;2023-05-23T03:37:35;19.30;71.00
80540;DHT22;69869;48.036;15.780;2023-05-23T03:40:01;19.30;71.40
80540;DHT22;69869;48.036;15.780;2023-05-23T03:42:28;19.30;72.60
80540;DHT22;69869;48.036;15.780;2023-05-23T03:44:54;19.30;72.50
80540;DHT22;69869;48.036;15.780;2023-05-23T03:47:20;19.30;72.50
80540;DHT22;69869;48.036;15.780;2023-05-23T03:49:46;19.30;71.80
80540;DHT22;69869;48.036;15.780;2023-05-23T03:52:11;19.30;72.30
80540;DHT22;69869;48.036;15.780;2023-05-23T03:54:37;19.30;72.50
80540;DHT22;69869;48.036;15.780;2023-05-23T03:57:03;19.30;71.40
80540;DHT22;69869;48.036;15.780;2023-05-23T03:59:28;19.30;72.20
80540;DHT22;69869;48.036;15.780;2023-05-23T04:01:54;19.30;72.50
80540;DHT22;69869;48.036;15.780;2023-05-23T04:04:23;19.30;72.80
80540;DHT22;69869;48.036;15.780;2023-05-23T04:06:49;19.30;72.90
80540;DHT22;69869;48.036;15.780;2023-05-23T04:09:16;19.30;72.90
80540;DHT22;69869;48.036;15.780;2023-05-23T04:11:42;19.30;72.80
80540;DHT22;69869;48.036;15.780;2023-05-23T04:14:08;19.30;72.90
80540;DHT22;69869;48.036;15.780;2023-05-23T04:16:36;19.30;72.70
80540;DHT22;69869;48.036;15.780;2023-05-23T04:19:01;19.40;71.00
80540;DHT22;69869;48.036;15.780;2023-05-23T04:21:28;19.30;68.60
80540;DHT22;69869;48.036;15.780;2023-05-23T04:23:54;19.30;68.40
80540;DHT22;69869;48.036;15.780;2023-05-23T04:26:20;19.30;67.10
80540;DHT22;69869;48.036;15.780;2023-05-23T04:28:46;19.20;66.30
80540;DHT22;69869;48.036;15.780;2023-05-23T04:31:13;19.20;65.70
80540;DHT22;69869;48.036;15.780;2023-05-23T04:33:39;19.20;65.80
80540;DHT22;69869;48.036;15.780;2023-05-23T04:36:05;19.20;67.50
80540;DHT22;69869;48.036;15.780;2023-05-23T04:38:33;19.20;65.20
80540;DHT22;69869;48.036;15.780;2023-05-23T04:40:59;19.20;64.80
80540;DHT22;69869;48.036;15.780;2023-05-23T04:43:25;19.20;64.30
80540;DHT22;69869;48.036;15.780;2023-05-23T04:45:51;19.10;64.00
80540;DHT22;69869;48.036;15.780;2023-05-23T04:48:20;19.10;63.60
80540;DHT22;69869;48.036;15.780;2023-05-23T04:50:46;19.10;63.40
80540;DHT22;69869;48.036;15.780;2023-05-23T04:53:13;19.10;63.20
80540;DHT22;69869;48.036;15.780;2023-05-23T04:55:39;19.10;63.00
80540;DHT22;69869;48.036;15.780;2023-05-23T04:58:04;19.10;63.00
80540;DHT22;69869;48.036;15.780;2023-05-23T05:00:30;19.00;62.80
80540;DHT22;69869;48.036;15.780;2023-05-23T05:02:55;19.10;62.80
80540;DHT22;69869;48.036;15.780;2023-05-23T05:05:21;19.00;62.70
80540;DHT22;69869;48.036;15.780;2023-05-23T05:07:47;19.00;62.80
80540;DHT22;69869;48.036;15.780;2023-05-23T05:10:13;19.00;62.70
80540;DHT22;69869;48.036;15.780;2023-05-23T05:12:44;19.00;62.80
80540;DHT22;69869;48.036;15.780;2023-05-23T05:15:17;19.00;62.80
80540;DHT22;69869;48.036;15.780;2023-05-23T05:17:43;19.00;62.80
80540;DHT22;69869;48.036;15.780;2023-05-23T05:20:09;19.00;62.90
80540;DHT22;69869;48.036;15.780;2023-05-23T05:22:36;19.00;62.90
80540;DHT22;69869;48.036;15.780;2023-05-23T05:25:08;19.00;63.00
80540;DHT22;69869;48.036;15.780;2023-05-23T05:27:34;19.00;63.00
80540;DHT22;69869;48.036;15.780;2023-05-23T05:30:04;19.00;63.10
80540;DHT22;69869;48.036;15.780;2023-05-23T05:32:30;19.00;63.20
80540;DHT22;69869;48.036;15.780;2023-05-23T05:35:01;19.00;63.30
80540;DHT22;69869;48.036;15.780;2023-05-23T05:37:27;19.00;63.40
80540;DHT22;69869;48.036;15.780;2023-05-23T05:39:53;19.00;63.50
80540;DHT22;69869;48.036;15.780;2023-05-23T05:42:20;19.00;63.50
80540;DHT22;69869;48.036;15.780;2023-05-23T05:44:47;18.90;63.50
80540;DHT22;69869;48.036;15.780;2023-05-23T05:47:13;18.90;63.60
80540;DHT22;69869;48.036;15.780;2023-05-23T05:49:38;18.90;63.60
80540;DHT22;69869;48.036;15.780;2023-05-23T05:52:05;18.90;63.70
80540;DHT22;69869;48.036;15.780;2023-05-23T05:54:31;18.90;63.80
80540;DHT22;69869;48.036;15.780;2023-05-23T05:56:57;18.90;63.80
80540;DHT22;69869;48.036;15.780;2023-05-23T05:59:23;18.90;63.90
80540;DHT22;69869;48.036;15.780;2023-05-23T06:01:48;18.90;63.90
80540;DHT22;69869;48.036;15.780;2023-05-23T06:04:16;18.90;64.00
80540;DHT22;69869;48.036;15.780;2023-05-23T06:06:42;18.90;64.20
80540;DHT22;69869;48.036;15.780;2023-05-23T06:09:08;18.90;64.30
80540;DHT22;69869;48.036;15.780;2023-05-23T06:11:33;18.90;64.40
80540;DHT22;69869;48.036;15.780;2023-05-23T06:14:02;18.90;64.50
80540;DHT22;69869;48.036;15.780;2023-05-23T06:16:28;18.90;64.60
80540;DHT22;69869;48.036;15.780;2023-05-23T06:18:53;18.90;64.70
80540;DHT22;69869;48.036;15.780;2023-05-23T06:21:19;18.90;64.80
80540;DHT22;69869;48.036;15.780;2023-05-23T06:23:44;18.90;64.90
80540;DHT22;69869;48.036;15.780;2023-05-23T06:26:10;18.90;65.00
80540;DHT22;69869;48.036;15.780;2023-05-23T06:28:37;18.90;65.10
80540;DHT22;69869;48.036;15.780;2023-05-23T06:31:04;18.90;65.20
80540;DHT22;69869;48.036;15.780;2023-05-23T06:33:29;18.90;65.20
80540;DHT22;69869;48.036;15.780;2023-05-23T06:35:55;18.90;66.10
80540;DHT22;69869;48.036;15.780;2023-05-23T06:38:21;18.90;65.30
80540;DHT22;69869;48.036;15.780;2023-05-23T06:40:47;18.90;65.40
80540;DHT22;69869;48.036;15.780;2023-05-23T06:43:13;18.90;65.50
80540;DHT22;69869;48.036;15.780;2023-05-23T06:45:38;18.90;65.60
80540;DHT22;69869;48.036;15.780;2023-05-23T06:48:04;18.90;65.50
80540;DHT22;69869;48.036;15.780;2023-05-23T06:50:30;18.90;65.60
80540;DHT22;69869;48.036;15.780;2023-05-23T06:52:56;18.90;65.60
80540;DHT22;69869;48.036;15.780;2023-05-23T06:55:22;18.90;65.70
80540;DHT22;69869;48.036;15.780;2023-05-23T06:57:48;18.90;65.80
80540;DHT22;69869;48.036;15.780;2023-05-23T07:00:17;18.90;65.90
80540;DHT22;69869;48.036;15.780;2023-05-23T07:02:43;18.90;65.90
80540;DHT22;69869;48.036;15.780;2023-05-23T07:05:13;18.90;66.00
80540;DHT22;69869;48.036;15.780;2023-05-23T07:07:39;18.90;65.90
80540;DHT22;69869;48.036;15.780;2023-05-23T07:10:06;18.90;65.90
80540;DHT22;69869;48.036;15.780;2023-05-23T07:12:31;18.90;65.90
80540;DHT22;69869;48.036;15.780;2023-05-23T07:14:57;18.90;66.00
80540;DHT22;69869;48.036;15.780;2023-05-23T07:17:23;18.90;65.80
80540;DHT22;69869;48.036;15.780;2023-05-23T07:19:49;18.90;65.80
80540;DHT22;69869;48.036;15.780;2023-05-23T07:22:17;18.90;65.80
80540;DHT22;69869;48.036;15.780;2023-05-23T07:24:43;18.90;65.70
80540;DHT22;69869;48.036;15.780;2023-05-23T07:27:08;18.90;65.70
80540;DHT22;69869;48.036;15.780;2023-05-23T07:29:34;18.90;65.90
80540;DHT22;69869;48.036;15.780;2023-05-23T07:31:59;18.90;65.90
80540;DHT22;69869;48.036;15.780;2023-05-23T07:34:25;18.90;65.80
80540;DHT22;69869;48.036;15.780;2023-05-23T07:36:51;18.90;65.70
80540;DHT22;69869;48.036;15.780;2023-05-23T07:39:17;18.90;66.00
80540;DHT22;69869;48.036;15.780;2023-05-23T07:41:47;18.90;65.80
80540;DHT22;69869;48.036;15.780;2023-05-23T07:44:13;18.90;65.70
80540;DHT22;69869;48.036;15.780;2023-05-23T07:46:38;18.90;65.90
80540;DHT22;69869;48.036;15.780;2023-05-23T07:49:04;18.90;65.70
80540;DHT22;69869;48.036;15.780;2023-05-23T07:51:30;18.90;65.60
80540;DHT22;69869;48.036;15.780;2023-05-23T07:53:56;18.90;65.90
80540;DHT22;69869;48.036;15.780;2023-05-23T07:56:22;18.90;66.00
80540;DHT22;69869;48.036;15.780;2023-05-23T07:58:48;18.90;65.90
80540;DHT22;69869;48.036;15.780;2023-05-23T08:01:13;18.90;65.90
80540;DHT22;69869;48.036;15.780;2023-05-23T08:03:39;18.90;65.80
80540;DHT22;69869;48.036;15.780;2023-05-23T08:06:05;18.90;65.70
80540;DHT22;69869;48.036;15.780;2023-05-23T08:08:32;18.90;65.60
80540;DHT22;69869;48.036;15.780;2023-05-23T08:10:57;19.00;65.70
80540;DHT22;69869;48.036;15.780;2023-05-23T08:13:23;18.90;65.60
80540;DHT22;69869;48.036;15.780;2023-05-23T08:15:49;18.90;66.00
80540;DHT22;69869;48.036;15.780;2023-05-23T08:18:14;18.90;65.70
80540;DHT22;69869;48.036;15.780;2023-05-23T08:20:41;18.90;65.90
80540;DHT22;69869;48.036;15.780;2023-05-23T08:23:07;18.90;65.60
80540;DHT22;69869;48.036;15.780;2023-05-23T08:25:33;18.90;65.70
80540;DHT22;69869;48.036;15.780;2023-05-23T08:27:59;18.90;65.80
80540;DHT22;69869;48.036;15.780;2023-05-23T08:30:27;18.90;65.70
80540;DHT22;69869;48.036;15.780;2023-05-23T08:32:53;19.00;66.00
80540;DHT22;69869;48.036;15.780;2023-05-23T08:35:20;18.90;65.90
80540;DHT22;69869;48.036;15.780;2023-05-23T08:37:46;19.00;65.70
80540;DHT22;69869;48.036;15.780;2023-05-23T08:40:19;19.00;66.00
80540;DHT22;69869;48.036;15.780;2023-05-23T08:42:49;19.00;65.80
80540;DHT22;69869;48.036;15.780;2023-05-23T08:45:15;19.00;65.90
80540;DHT22;69869;48.036;15.780;2023-05-23T08:47:43;19.00;66.00
80540;DHT22;69869;48.036;15.780;2023-05-23T08:50:14;19.00;66.10
80540;DHT22;69869;48.036;15.780;2023-05-23T08:55:12;19.00;66.30
80540;DHT22;69869;48.036;15.780;2023-05-23T08:57:39;19.00;66.30
80540;DHT22;69869;48.036;15.780;2023-05-23T09:00:09;19.00;65.80
80540;DHT22;69869;48.036;15.780;2023-05-23T09:02:42;19.00;65.70
80540;DHT22;69869;48.036;15.780;2023-05-23T09:05:09;19.00;66.30
80540;DHT22;69869;48.036;15.780;2023-05-23T09:07:35;19.00;66.10
80540;DHT22;69869;48.036;15.780;2023-05-23T09:10:03;19.00;65.90
80540;DHT22;69869;48.036;15.780;2023-05-23T09:12:29;19.00;65.90
80540;DHT22;69869;48.036;15.780;2023-05-23T09:14:55;19.00;66.50
80540;DHT22;69869;48.036;15.780;2023-05-23T09:17:22;19.00;66.00
80540;DHT22;69869;48.036;15.780;2023-05-23T09:19:48;19.00;66.10
80540;DHT22;69869;48.036;15.780;2023-05-23T09:22:13;19.00;65.80
80540;DHT22;69869;48.036;15.780;2023-05-23T09:24:40;19.00;66.30
80540;DHT22;69869;48.036;15.780;2023-05-23T09:27:06;19.00;66.10
80540;DHT22;69869;48.036;15.780;2023-05-23T09:29:36;19.00;65.80
80540;DHT22;69869;48.036;15.780;2023-05-23T09:32:19;19.00;66.50
80540;DHT22;69869;48.036;15.780;2023-05-23T09:34:59;19.00;66.60
80540;DHT22;69869;48.036;15.780;2023-05-23T09:39:59;19.00;66.20
80540;DHT22;69869;48.036;15.780;2023-05-23T09:42:31;19.00;66.50
80540;DHT22;69869;48.036;15.780;2023-05-23T09:44:57;19.00;66.60
80540;DHT22;69869;48.036;15.780;2023-05-23T09:47:23;19.00;66.10
80540;DHT22;69869;48.036;15.780;2023-05-23T09:49:48;19.00;66.10
80540;DHT22;69869;48.036;15.780;2023-05-23T09:52:16;19.00;67.20
80540;DHT22;69869;48.036;15.780;2023-05-23T09:54:42;19.00;66.80
80540;DHT22;69869;48.036;15.780;2023-05-23T09:57:09;19.00;66.40
80540;DHT22;69869;48.036;15.780;2023-05-23T09:59:40;19.00;66.40
80540;DHT22;69869;48.036;15.780;2023-05-23T10:02:10;19.00;67.30
80540;DHT22;69869;48.036;15.780;2023-05-23T10:04:37;19.00;65.90
80540;DHT22;69869;48.036;15.780;2023-05-23T10:07:12;19.00;66.50
80540;DHT22;69869;48.036;15.780;2023-05-23T10:09:44;19.00;67.30
80540;DHT22;69869;48.036;15.780;2023-05-23T10:15:04;19.00;66.80
80540;DHT22;69869;48.036;15.780;2023-05-23T10:20:23;19.10;66.90
80540;DHT22;69869;48.036;15.780;2023-05-23T10:22:50;19.10;66.80
80540;DHT22;69869;48.036;15.780;2023-05-23T10:25:16;19.00;66.70
80540;DHT22;69869;48.036;15.780;2023-05-23T10:27:43;19.00;66.80
80540;DHT22;69869;48.036;15.780;2023-05-23T10:30:09;19.10;66.50
80540;DHT22;69869;48.036;15.780;2023-05-23T10:32:36;19.10;67.80
80540;DHT22;69869;48.036;15.780;2023-05-23T10:38:06;19.10;67.60
80540;DHT22;69869;48.036;15.780;2023-05-23T10:43:44;19.10;67.30
80540;DHT22;69869;48.036;15.780;2023-05-23T10:46:14;19.10;67.30
80540;DHT22;69869;48.036;15.780;2023-05-23T10:48:41;19.10;66.40
80540;DHT22;69869;48.036;15.780;2023-05-23T10:51:12;19.10;66.00
80540;DHT22;69869;48.036;15.780;2023-05-23T10:53:43;19.10;66.70
80540;DHT22;69869;48.036;15.780;2023-05-23T10:56:18;19.10;66.00
80540;DHT22;69869;48.036;15.780;2023-05-23T10:58:51;19.10;66.40
80540;DHT22;69869;48.036;15.780;2023-05-23T11:01:18;19.10;66.10
80540;DHT22;69869;48.036;15.780;2023-05-23T11:06:42;19.10;65.70
80540;DHT22;69869;48.036;15.780;2023-05-23T11:09:16;19.10;66.50
80540;DHT22;69869;48.036;15.780;2023-05-23T11:12:02;19.10;66.90
80540;DHT22;69869;48.036;15.780;2023-05-23T11:19:36;19.10;66.20
80540;DHT22;69869;48.036;15.780;2023-05-23T11:22:03;19.10;66.80
80540;DHT22;69869;48.036;15.780;2023-05-23T11:24:52;19.10;66.70
80540;DHT22;69869;48.036;15.780;2023-05-23T11:27:32;19.10;66.80
80540;DHT22;69869;48.036;15.780;2023-05-23T11:32:29;19.10;66.20
80540;DHT22;69869;48.036;15.780;2023-05-23T11:35:01;19.10;67.00
80540;DHT22;69869;48.036;15.780;2023-05-23T11:37:27;19.10;66.30
80540;DHT22;69869;48.036;15.780;2023-05-23T11:39:53;19.10;66.20
80540;DHT22;69869;48.036;15.780;2023-05-23T11:42:18;19.10;67.00
80540;DHT22;69869;48.036;15.780;2023-05-23T11:44:48;19.10;66.60
80540;DHT22;69869;48.036;15.780;2023-05-23T11:47:14;19.10;65.90
80540;DHT22;69869;48.036;15.780;2023-05-23T11:49:44;19.10;66.20
80540;DHT22;69869;48.036;15.780;2023-05-23T11:52:10;19.10;65.90
80540;DHT22;69869;48.036;15.780;2023-05-23T11:54:36;19.10;65.70
80540;DHT22;69869;48.036;15.780;2023-05-23T11:57:02;19.10;66.20
80540;DHT22;69869;48.036;15.780;2023-05-23T11:59:28;19.10;66.50
80540;DHT22;69869;48.036;15.780;2023-05-23T12:01:55;19.10;66.30
80540;DHT22;69869;48.036;15.780;2023-05-23T12:04:21;19.10;66.40
80540;DHT22;69869;48.036;15.780;2023-05-23T12:06:48;19.10;66.60
80540;DHT22;69869;48.036;15.780;2023-05-23T12:09:14;19.10;67.10
80540;DHT22;69869;48.036;15.780;2023-05-23T12:11:40;19.10;67.10
80540;DHT22;69869;48.036;15.780;2023-05-23T12:14:07;19.20;67.10
80540;DHT22;69869;48.036;15.780;2023-05-23T12:16:34;19.10;67.10
80540;DHT22;69869;48.036;15.780;2023-05-23T12:19:01;19.10;67.10
80540;DHT22;69869;48.036;15.780;2023-05-23T12:21:47;19.10;66.80
80540;DHT22;69869;48.036;15.780;2023-05-23T12:24:17;19.20;67.70
80540;DHT22;69869;48.036;15.780;2023-05-23T12:26:54;19.20;67.20
80540;DHT22;69869;48.036;15.780;2023-05-23T12:29:21;19.20;66.90
80540;DHT22;69869;48.036;15.780;2023-05-23T12:31:52;19.20;67.50
80540;DHT22;69869;48.036;15.780;2023-05-23T12:34:19;19.20;67.20
80540;DHT22;69869;48.036;15.780;2023-05-23T12:36:46;19.20;66.80
80540;DHT22;69869;48.036;15.780;2023-05-23T12:39:14;19.20;66.80
80540;DHT22;69869;48.036;15.780;2023-05-23T12:41:43;19.10;67.10
80540;DHT22;69869;48.036;15.780;2023-05-23T12:44:09;19.20;67.30
80540;DHT22;69869;48.036;15.780;2023-05-23T12:46:35;19.20;67.20
80540;DHT22;69869;48.036;15.780;2023-05-23T12:49:01;19.20;67.70
80540;DHT22;69869;48.036;15.780;2023-05-23T12:51:27;19.20;67.30
80540;DHT22;69869;48.036;15.780;2023-05-23T12:53:53;19.20;66.50
80540;DHT22;69869;48.036;15.780;2023-05-23T12:56:20;19.20;67.80
80540;DHT22;69869;48.036;15.780;2023-05-23T12:58:46;19.20;67.80
80540;DHT22;69869;48.036;15.780;2023-05-23T13:01:13;19.20;67.90
80540;DHT22;69869;48.036;15.780;2023-05-23T13:03:39;19.20;67.80
80540;DHT22;69869;48.036;15.780;2023-05-23T13:06:05;19.20;67.90
80540;DHT22;69869;48.036;15.780;2023-05-23T13:08:31;19.20;68.00
80540;DHT22;69869;48.036;15.780;2023-05-23T13:10:56;19.20;67.60
80540;DHT22;69869;48.036;15.780;2023-05-23T13:13:22;19.20;68.00
80540;DHT22;69869;48.036;15.780;2023-05-23T13:15:48;19.20;68.00
80540;DHT22;69869;48.036;15.780;2023-05-23T13:18:14;19.20;68.70
80540;DHT22;69869;48.036;15.780;2023-05-23T13:20:39;19.20;68.70
80540;DHT22;69869;48.036;15.780;2023-05-23T13:23:06;19.20;68.30
80540;DHT22;69869;48.036;15.780;2023-05-23T13:25:34;19.30;68.40
80540;DHT22;69869;48.036;15.780;2023-05-23T13:27:59;19.30;69.10
80540;DHT22;69869;48.036;15.780;2023-05-23T13:30:26;19.20;68.90
80540;DHT22;69869;48.036;15.780;2023-05-23T13:32:52;19.30;68.80
80540;DHT22;69869;48.036;15.780;2023-05-23T13:35:18;19.30;69.60
80540;DHT22;69869;48.036;15.780;2023-05-23T13:37:43;19.30;68.80
80540;DHT22;69869;48.036;15.780;2023-05-23T13:40:16;19.30;69.10
80540;DHT22;69869;48.036;15.780;2023-05-23T13:42:47;19.20;69.20
80540;DHT22;69869;48.036;15.780;2023-05-23T13:45:14;19.30;69.60
80540;DHT22;69869;48.036;15.780;2023-05-23T13:47:40;19.20;69.10
80540;DHT22;69869;48.036;15.780;2023-05-23T13:50:06;19.30;69.60
80540;DHT22;69869;48.036;15.780;2023-05-23T13:52:32;19.30;68.80
80540;DHT22;69869;48.036;15.780;2023-05-23T13:54:58;19.30;69.10
80540;DHT22;69869;48.036;15.780;2023-05-23T13:57:25;19.30;69.30
80540;DHT22;69869;48.036;15.780;2023-05-23T13:59:51;19.30;68.20
80540;DHT22;69869;48.036;15.780;2023-05-23T14:02:17;19.30;68.10
80540;DHT22;69869;48.036;15.780;2023-05-23T14:04:42;19.30;68.30
80540;DHT22;69869;48.036;15.780;2023-05-23T14:07:08;19.20;68.00
80540;DHT22;69869;48.036;15.780;2023-05-23T14:09:34;19.20;67.80
80540;DHT22;69869;48.036;15.780;2023-05-23T14:11:59;19.30;67.40
80540;DHT22;69869;48.036;15.780;2023-05-23T14:14:25;19.30;68.80
80540;DHT22;69869;48.036;15.780;2023-05-23T14:16:51;19.20;68.90
80540;DHT22;69869;48.036;15.780;2023-05-23T14:19:17;19.30;68.90
80540;DHT22;69869;48.036;15.780;2023-05-23T14:21:43;19.30;69.20
80540;DHT22;69869;48.036;15.780;2023-05-23T14:24:09;19.30;68.00
80540;DHT22;69869;48.036;15.780;2023-05-23T14:26:35;19.30;66.90
80540;DHT22;69869;48.036;15.780;2023-05-23T14:29:01;19.20;66.40
80540;DHT22;69869;48.036;15.780;2023-05-23T14:31:27;19.20;66.20
80540;DHT22;69869;48.036;15.780;2023-05-23T14:33:52;19.20;66.10
80540;DHT22;69869;48.036;15.780;2023-05-23T14:36:18;19.20;66.20
80540;DHT22;69869;48.036;15.780;2023-05-23T14:38:44;19.20;66.30
80540;DHT22;69869;48.036;15.780;2023-05-23T14:41:13;19.20;66.40
80540;DHT22;69869;48.036;15.780;2023-05-23T14:43:38;19.20;66.60
80540;DHT22;69869;48.036;15.780;2023-05-23T14:46:04;19.20;66.80
80540;DHT22;69869;48.036;15.780;2023-05-23T14:48:30;19.20;67.00
80540;DHT22;69869;48.036;15.780;2023-05-23T14:50:56;19.20;67.20
80540;DHT22;69869;48.036;15.780;2023-05-23T14:53:26;19.20;67.30
80540;DHT22;69869;48.036;15.780;2023-05-23T14:55:52;19.20;67.60
80540;DHT22;69869;48.036;15.780;2023-05-23T14:58:18;19.20;67.80
80540;DHT22;69869;48.036;15.780;2023-05-23T15:00:43;19.20;68.00
80540;DHT22;69869;48.036;15.780;2023-05-23T15:03:12;19.20;68.20
80540;DHT22;69869;48.036;15.780;2023-05-23T15:05:38;19.20;68.10
80540;DHT22;69869;48.036;15.780;2023-05-23T15:08:04;19.20;68.50
80540;DHT22;69869;48.036;15.780;2023-05-23T15:10:30;19.20;68.60
80540;DHT22;69869;48.036;15.780;2023-05-23T15:12:56;19.20;68.70
80540;DHT22;69869;48.036;15.780;2023-05-23T15:15:22;19.20;68.70
80540;DHT22;69869;48.036;15.780;2023-05-23T15:17:49;19.10;68.60
80540;DHT22;69869;48.036;15.780;2023-05-23T15:20:17;19.10;69.00
80540;DHT22;69869;48.036;15.780;2023-05-23T15:22:43;19.20;69.40
80540;DHT22;69869;48.036;15.780;2023-05-23T15:25:09;19.10;69.60
80540;DHT22;69869;48.036;15.780;2023-05-23T15:27:35;19.10;69.80
80540;DHT22;69869;48.036;15.780;2023-05-23T15:30:01;19.10;70.10
80540;DHT22;69869;48.036;15.780;2023-05-23T15:32:27;19.10;70.40
80540;DHT22;69869;48.036;15.780;2023-05-23T15:34:53;19.10;70.40
80540;DHT22;69869;48.036;15.780;2023-05-23T15:37:18;19.10;70.40
80540;DHT22;69869;48.036;15.780;2023-05-23T15:39:44;19.10;70.70
80540;DHT22;69869;48.036;15.780;2023-05-23T15:42:10;19.10;70.80
80540;DHT22;69869;48.036;15.780;2023-05-23T15:44:35;19.10;71.00
80540;DHT22;69869;48.036;15.780;2023-05-23T15:47:01;19.10;71.20